sensor_id;sensor_type;location;lat;lon;timestamp;P1;durP1;ratioP1;P2;durP2;ratioP2
14231;SDS011;7200;52.194;9.900;2023-04-24T00:00:30;0.10;;;0.10;;
14231;SDS011;7200;52.194;9.900;2023-04-24T00:02:56;0.10;;;0.10;;
14231;SDS011;7200;52.194;9.900;2023-04-24T00:05:23;2.67;;;0.77;;
14231;SDS011;7200;52.194;9.900;2023-04-24T00:07:48;0.20;;;0.20;;
14231;SDS011;7200;52.194;9.900;2023-04-24T00:10:17;0.10;;;0.10;;
14231;SDS011;7200;52.194;9.900;2023-04-24T00:12:42;0.10;;;0.10;;
14231;SDS011;7200;52.194;9.900;2023-04-24T00:15:08;0.10;;;0.10;;
14231;SDS011;7200;52.194;9.900;2023-04-24T00:17:33;0.10;;;0.10;;
14231;SDS011;7200;52.194;9.900;2023-04-24T00:19:59;0.20;;;0.20;;
14231;SDS011;7200;52.194;9.900;2023-04-24T00:22:25;0.10;;;0.10;;
14231;SDS011;7200;52.194;9.900;2023-04-24T00:24:51;0.20;;;0.20;;
14231;SDS011;7200;52.194;9.900;2023-04-24T00:27:16;0.30;;;0.30;;
14231;SDS011;7200;52.194;9.900;2023-04-24T00:29:41;4.00;;;0.30;;
14231;SDS011;7200;52.194;9.900;2023-04-24T00:32:06;0.20;;;0.20;;
14231;SDS011;7200;52.194;9.900;2023-04-24T00:34:32;1.90;;;0.40;;
14231;SDS011;7200;52.194;9.900;2023-04-24T00:36:57;0.10;;;0.10;;
14231;SDS011;7200;52.194;9.900;2023-04-24T00:39:23;0.30;;;0.30;;
14231;SDS011;7200;52.194;9.900;2023-04-24T00:41:48;0.20;;;0.20;;
14231;SDS011;7200;52.194;9.900;2023-04-24T00:44:15;0.40;;;0.40;;
14231;SDS011;7200;52.194;9.900;2023-04-24T00:46:41;0.50;;;0.50;;
14231;SDS011;7200;52.194;9.900;2023-04-24T00:49:07;0.70;;;0.70;;
14231;SDS011;7200;52.194;9.900;2023-04-24T00:51:33;0.87;;;0.30;;
14231;SDS011;7200;52.194;9.900;2023-04-24T00:53:59;0.10;;;0.10;;
14231;SDS011;7200;52.194;9.900;2023-04-24T00:56:25;0.40;;;0.40;;
14231;SDS011;7200;52.194;9.900;2023-04-24T00:58:51;0.33;;;0.33;;
14231;SDS011;7200;52.194;9.900;2023-04-24T01:01:16;0.20;;;0.20;;
14231;SDS011;7200;52.194;9.900;2023-04-24T01:03:45;1.17;;;0.70;;
14231;SDS011;7200;52.194;9.900;2023-04-24T01:06:11;0.10;;;0.10;;
14231;SDS011;7200;52.194;9.900;2023-04-24T01:08:37;0.60;;;0.60;;
14231;SDS011;7200;52.194;9.900;2023-04-24T01:11:04;0.67;;;0.20;;
14231;SDS011;7200;52.194;9.900;2023-04-24T01:13:31;0.10;;;0.10;;
14231;SDS011;7200;52.194;9.900;2023-04-24T01:15:56;0.10;;;0.10;;
14231;SDS011;7200;52.194;9.900;2023-04-24T01:18:22;0.30;;;0.30;;
14231;SDS011;7200;52.194;9.900;2023-04-24T01:20:47;0.67;;;0.67;;
14231;SDS011;7200;52.194;9.900;2023-04-24T01:23:15;0.10;;;0.10;;
14231;SDS011;7200;52.194;9.900;2023-04-24T01:25:41;0.10;;;0.10;;
14231;SDS011;7200;52.194;9.900;2023-04-24T01:28:06;0.30;;;0.30;;
14231;SDS011;7200;52.194;9.900;2023-04-24T01:30:33;0.10;;;0.10;;
14231;SDS011;7200;52.194;9.900;2023-04-24T01:32:58;0.10;;;0.10;;
14231;SDS011;7200;52.194;9.900;2023-04-24T01:35:24;0.10;;;0.10;;
14231;SDS011;7200;52.194;9.900;2023-04-24T01:37:49;1.10;;;0.67;;
14231;SDS011;7200;52.194;9.900;2023-04-24T01:40:15;0.50;;;0.50;;
14231;SDS011;7200;52.194;9.900;2023-04-24T01:42:40;0.10;;;0.10;;
14231;SDS011;7200;52.194;9.900;2023-04-24T01:45:07;0.10;;;0.10;;
14231;SDS011;7200;52.194;9.900;2023-04-24T01:47:36;0.10;;;0.10;;
14231;SDS011;7200;52.194;9.900;2023-04-24T01:50:01;0.10;;;0.10;;
14231;SDS011;7200;52.194;9.900;2023-04-24T01:52:27;0.20;;;0.20;;
14231;SDS011;7200;52.194;9.900;2023-04-24T01:54:53;0.10;;;0.10;;
14231;SDS011;7200;52.194;9.900;2023-04-24T01:57:20;0.20;;;0.20;;
14231;SDS011;7200;52.194;9.900;2023-04-24T01:59:46;0.60;;;0.60;;
14231;SDS011;7200;52.194;9.900;2023-04-24T02:02:11;0.17;;;0.17;;
14231;SDS011;7200;52.194;9.900;2023-04-24T02:04:36;0.20;;;0.20;;
14231;SDS011;7200;52.194;9.900;2023-04-24T02:07:01;0.47;;;0.47;;
14231;SDS011;7200;52.194;9.900;2023-04-24T02:09:27;0.37;;;0.37;;
14231;SDS011;7200;52.194;9.900;2023-04-24T02:11:52;0.40;;;0.40;;
14231;SDS011;7200;52.194;9.900;2023-04-24T02:14:17;0.40;;;0.40;;
14231;SDS011;7200;52.194;9.900;2023-04-24T02:16:43;0.10;;;0.10;;
14231;SDS011;7200;52.194;9.900;2023-04-24T02:19:08;0.10;;;0.10;;
14231;SDS011;7200;52.194;9.900;2023-04-24T02:21:34;0.37;;;0.37;;
14231;SDS011;7200;52.194;9.900;2023-04-24T02:24:00;0.20;;;0.20;;
14231;SDS011;7200;52.194;9.900;2023-04-24T02:26:25;0.20;;;0.20;;
14231;SDS011;7200;52.194;9.900;2023-04-24T02:28:51;0.10;;;0.10;;
14231;SDS011;7200;52.194;9.900;2023-04-24T02:31:16;0.10;;;0.10;;
14231;SDS011;7200;52.194;9.900;2023-04-24T02:33:41;0.10;;;0.10;;
14231;SDS011;7200;52.194;9.900;2023-04-24T02:36:07;0.10;;;0.10;;
14231;SDS011;7200;52.194;9.900;2023-04-24T02:38:32;0.10;;;0.10;;
14231;SDS011;7200;52.194;9.900;2023-04-24T02:40:57;0.30;;;0.30;;
14231;SDS011;7200;52.194;9.900;2023-04-24T02:43:23;0.10;;;0.10;;
14231;SDS011;7200;52.194;9.900;2023-04-24T02:45:48;0.10;;;0.10;;
14231;SDS011;7200;52.194;9.900;2023-04-24T02:48:14;0.10;;;0.10;;
14231;SDS011;7200;52.194;9.900;2023-04-24T02:50:39;0.17;;;0.17;;
14231;SDS011;7200;52.194;9.900;2023-04-24T02:53:04;0.50;;;0.40;;
14231;SDS011;7200;52.194;9.900;2023-04-24T02:55:29;0.10;;;0.10;;
14231;SDS011;7200;52.194;9.900;2023-04-24T02:57:55;0.30;;;0.30;;
14231;SDS011;7200;52.194;9.900;2023-04-24T03:00:21;0.50;;;0.50;;
14231;SDS011;7200;52.194;9.900;2023-04-24T03:02:46;0.23;;;0.23;;
14231;SDS011;7200;52.194;9.900;2023-04-24T03:05:11;0.20;;;0.20;;
14231;SDS011;7200;52.194;9.900;2023-04-24T03:07:37;0.20;;;0.20;;
14231;SDS011;7200;52.194;9.900;2023-04-24T03:10:02;0.13;;;0.13;;
14231;SDS011;7200;52.194;9.900;2023-04-24T03:12:29;0.10;;;0.10;;
14231;SDS011;7200;52.194;9.900;2023-04-24T03:14:55;0.20;;;0.20;;
14231;SDS011;7200;52.194;9.900;2023-04-24T03:17:20;0.20;;;0.20;;
14231;SDS011;7200;52.194;9.900;2023-04-24T03:19:45;0.30;;;0.30;;
14231;SDS011;7200;52.194;9.900;2023-04-24T03:22:11;0.20;;;0.20;;
14231;SDS011;7200;52.194;9.900;2023-04-24T03:24:37;0.20;;;0.20;;
14231;SDS011;7200;52.194;9.900;2023-04-24T03:27:02;0.10;;;0.10;;
14231;SDS011;7200;52.194;9.900;2023-04-24T03:29:27;0.20;;;0.20;;
14231;SDS011;7200;52.194;9.900;2023-04-24T03:31:52;0.20;;;0.20;;
14231;SDS011;7200;52.194;9.900;2023-04-24T03:34:18;0.20;;;0.20;;
14231;SDS011;7200;52.194;9.900;2023-04-24T03:36:43;0.40;;;0.40;;
14231;SDS011;7200;52.194;9.900;2023-04-24T03:39:08;0.17;;;0.17;;
14231;SDS011;7200;52.194;9.900;2023-04-24T03:41:34;0.10;;;0.10;;
14231;SDS011;7200;52.194;9.900;2023-04-24T03:43:59;0.20;;;0.20;;
14231;SDS011;7200;52.194;9.900;2023-04-24T03:46:25;0.20;;;0.20;;
14231;SDS011;7200;52.194;9.900;2023-04-24T03:48:50;0.10;;;0.10;;
14231;SDS011;7200;52.194;9.900;2023-04-24T03:51:15;0.20;;;0.20;;
14231;SDS011;7200;52.194;9.900;2023-04-24T03:53:41;0.20;;;0.20;;
14231;SDS011;7200;52.194;9.900;2023-04-24T03:56:06;0.37;;;0.37;;
14231;SDS011;7200;52.194;9.900;2023-04-24T03:58:31;0.10;;;0.10;;
14231;SDS011;7200;52.194;9.900;2023-04-24T04:00:57;0.10;;;0.10;;
14231;SDS011;7200;52.194;9.900;2023-04-24T04:03:23;0.20;;;0.20;;
14231;SDS011;7200;52.194;9.900;2023-04-24T04:05:48;0.20;;;0.20;;
14231;SDS011;7200;52.194;9.900;2023-04-24T04:08:14;0.20;;;0.20;;
14231;SDS011;7200;52.194;9.900;2023-04-24T04:10:39;0.20;;;0.20;;
14231;SDS011;7200;52.194;9.900;2023-04-24T04:13:05;0.10;;;0.10;;
14231;SDS011;7200;52.194;9.900;2023-04-24T04:15:31;0.20;;;0.20;;
14231;SDS011;7200;52.194;9.900;2023-04-24T04:17:56;0.20;;;0.20;;
14231;SDS011;7200;52.194;9.900;2023-04-24T04:20:22;0.20;;;0.20;;
14231;SDS011;7200;52.194;9.900;2023-04-24T04:22:47;0.10;;;0.10;;
14231;SDS011;7200;52.194;9.900;2023-04-24T04:25:13;0.10;;;0.10;;
14231;SDS011;7200;52.194;9.900;2023-04-24T04:27:38;0.10;;;0.10;;
14231;SDS011;7200;52.194;9.900;2023-04-24T04:30:04;0.20;;;0.20;;
14231;SDS011;7200;52.194;9.900;2023-04-24T04:32:33;0.20;;;0.20;;
14231;SDS011;7200;52.194;9.900;2023-04-24T04:34:59;0.20;;;0.20;;
14231;SDS011;7200;52.194;9.900;2023-04-24T04:37:29;0.40;;;0.40;;
14231;SDS011;7200;52.194;9.900;2023-04-24T04:39:56;0.10;;;0.10;;
14231;SDS011;7200;52.194;9.900;2023-04-24T04:42:22;0.20;;;0.20;;
14231;SDS011;7200;52.194;9.900;2023-04-24T04:44:48;0.20;;;0.20;;
14231;SDS011;7200;52.194;9.900;2023-04-24T04:47:15;0.20;;;0.20;;
14231;SDS011;7200;52.194;9.900;2023-04-24T04:49:41;0.20;;;0.20;;
14231;SDS011;7200;52.194;9.900;2023-04-24T04:52:06;0.20;;;0.20;;
14231;SDS011;7200;52.194;9.900;2023-04-24T04:54:31;0.10;;;0.10;;
14231;SDS011;7200;52.194;9.900;2023-04-24T04:56:57;0.10;;;0.10;;
14231;SDS011;7200;52.194;9.900;2023-04-24T04:59:22;0.10;;;0.10;;
14231;SDS011;7200;52.194;9.900;2023-04-24T05:01:48;0.20;;;0.20;;
14231;SDS011;7200;52.194;9.900;2023-04-24T05:04:13;0.10;;;0.10;;
14231;SDS011;7200;52.194;9.900;2023-04-24T05:06:39;0.33;;;0.33;;
14231;SDS011;7200;52.194;9.900;2023-04-24T05:09:04;0.10;;;0.10;;
14231;SDS011;7200;52.194;9.900;2023-04-24T05:11:30;0.20;;;0.20;;
14231;SDS011;7200;52.194;9.900;2023-04-24T05:13:55;0.20;;;0.20;;
14231;SDS011;7200;52.194;9.900;2023-04-24T05:16:20;0.20;;;0.20;;
14231;SDS011;7200;52.194;9.900;2023-04-24T05:18:46;0.10;;;0.10;;
14231;SDS011;7200;52.194;9.900;2023-04-24T05:21:11;0.10;;;0.10;;
14231;SDS011;7200;52.194;9.900;2023-04-24T05:23:37;0.10;;;0.10;;
14231;SDS011;7200;52.194;9.900;2023-04-24T05:26:02;0.10;;;0.10;;
14231;SDS011;7200;52.194;9.900;2023-04-24T05:28:27;0.17;;;0.17;;
14231;SDS011;7200;52.194;9.900;2023-04-24T05:30:53;0.10;;;0.10;;
14231;SDS011;7200;52.194;9.900;2023-04-24T05:33:20;0.10;;;0.10;;
14231;SDS011;7200;52.194;9.900;2023-04-24T05:35:45;0.30;;;0.30;;
14231;SDS011;7200;52.194;9.900;2023-04-24T05:38:12;0.70;;;0.70;;
14231;SDS011;7200;52.194;9.900;2023-04-24T05:40:37;0.10;;;0.10;;
14231;SDS011;7200;52.194;9.900;2023-04-24T05:43:03;0.30;;;0.30;;
14231;SDS011;7200;52.194;9.900;2023-04-24T05:45:28;0.40;;;0.40;;
14231;SDS011;7200;52.194;9.900;2023-04-24T05:47:53;0.10;;;0.10;;
14231;SDS011;7200;52.194;9.900;2023-04-24T05:50:20;0.30;;;0.30;;
14231;SDS011;7200;52.194;9.900;2023-04-24T05:52:45;0.10;;;0.10;;
14231;SDS011;7200;52.194;9.900;2023-04-24T05:55:11;0.10;;;0.10;;
14231;SDS011;7200;52.194;9.900;2023-04-24T05:57:36;0.10;;;0.10;;
14231;SDS011;7200;52.194;9.900;2023-04-24T06:00:02;0.37;;;0.37;;
14231;SDS011;7200;52.194;9.900;2023-04-24T06:02:29;0.10;;;0.10;;
14231;SDS011;7200;52.194;9.900;2023-04-24T06:04:57;0.10;;;0.10;;
14231;SDS011;7200;52.194;9.900;2023-04-24T06:07:23;0.10;;;0.10;;
14231;SDS011;7200;52.194;9.900;2023-04-24T06:09:51;0.30;;;0.20;;
14231;SDS011;7200;52.194;9.900;2023-04-24T06:12:16;0.20;;;0.20;;
14231;SDS011;7200;52.194;9.900;2023-04-24T06:14:41;0.10;;;0.10;;
14231;SDS011;7200;52.194;9.900;2023-04-24T06:17:06;0.20;;;0.20;;
14231;SDS011;7200;52.194;9.900;2023-04-24T06:19:32;0.20;;;0.20;;
14231;SDS011;7200;52.194;9.900;2023-04-24T06:21:57;0.40;;;0.40;;
14231;SDS011;7200;52.194;9.900;2023-04-24T06:24:24;0.50;;;0.50;;
14231;SDS011;7200;52.194;9.900;2023-04-24T06:26:52;1.03;;;0.80;;
14231;SDS011;7200;52.194;9.900;2023-04-24T06:29:17;0.53;;;0.53;;
14231;SDS011;7200;52.194;9.900;2023-04-24T06:31:42;0.40;;;0.40;;
14231;SDS011;7200;52.194;9.900;2023-04-24T06:34:08;1.47;;;1.07;;
14231;SDS011;7200;52.194;9.900;2023-04-24T06:36:33;0.77;;;0.77;;
14231;SDS011;7200;52.194;9.900;2023-04-24T06:39:00;1.60;;;0.70;;
14231;SDS011;7200;52.194;9.900;2023-04-24T06:41:26;0.73;;;0.70;;
14231;SDS011;7200;52.194;9.900;2023-04-24T06:43:51;0.67;;;0.67;;
14231;SDS011;7200;52.194;9.900;2023-04-24T06:46:16;0.60;;;0.60;;
14231;SDS011;7200;52.194;9.900;2023-04-24T06:48:41;1.17;;;0.87;;
14231;SDS011;7200;52.194;9.900;2023-04-24T06:51:07;0.70;;;0.70;;
14231;SDS011;7200;52.194;9.900;2023-04-24T06:53:32;1.00;;;0.93;;
14231;SDS011;7200;52.194;9.900;2023-04-24T06:55:58;1.10;;;1.10;;
14231;SDS011;7200;52.194;9.900;2023-04-24T06:58:24;0.90;;;0.90;;
14231;SDS011;7200;52.194;9.900;2023-04-24T07:00:50;0.60;;;0.60;;
14231;SDS011;7200;52.194;9.900;2023-04-24T07:03:15;2.33;;;1.17;;
14231;SDS011;7200;52.194;9.900;2023-04-24T07:05:40;1.63;;;1.10;;
14231;SDS011;7200;52.194;9.900;2023-04-24T07:08:06;1.07;;;1.07;;
14231;SDS011;7200;52.194;9.900;2023-04-24T07:10:32;1.10;;;1.00;;
14231;SDS011;7200;52.194;9.900;2023-04-24T07:12:59;0.43;;;0.43;;
14231;SDS011;7200;52.194;9.900;2023-04-24T07:15:24;1.50;;;1.37;;
14231;SDS011;7200;52.194;9.900;2023-04-24T07:17:49;1.83;;;1.73;;
14231;SDS011;7200;52.194;9.900;2023-04-24T07:20:15;2.10;;;2.00;;
14231;SDS011;7200;52.194;9.900;2023-04-24T07:22:40;2.23;;;2.10;;
14231;SDS011;7200;52.194;9.900;2023-04-24T07:25:06;1.97;;;1.37;;
14231;SDS011;7200;52.194;9.900;2023-04-24T07:27:32;1.97;;;1.87;;
14231;SDS011;7200;52.194;9.900;2023-04-24T07:29:58;0.10;;;0.10;;
14231;SDS011;7200;52.194;9.900;2023-04-24T07:32:24;2.30;;;2.10;;
14231;SDS011;7200;52.194;9.900;2023-04-24T07:34:49;2.10;;;2.00;;
14231;SDS011;7200;52.194;9.900;2023-04-24T07:37:14;0.57;;;0.57;;
14231;SDS011;7200;52.194;9.900;2023-04-24T07:39:40;0.83;;;0.83;;
14231;SDS011;7200;52.194;9.900;2023-04-24T07:42:05;1.50;;;1.40;;
14231;SDS011;7200;52.194;9.900;2023-04-24T07:44:31;3.43;;;2.80;;
14231;SDS011;7200;52.194;9.900;2023-04-24T07:46:57;1.47;;;0.93;;
14231;SDS011;7200;52.194;9.900;2023-04-24T07:49:22;1.27;;;1.23;;
14231;SDS011;7200;52.194;9.900;2023-04-24T07:51:48;8.03;;;3.10;;
14231;SDS011;7200;52.194;9.900;2023-04-24T07:54:14;2.00;;;1.90;;
14231;SDS011;7200;52.194;9.900;2023-04-24T07:56:40;1.47;;;1.37;;
14231;SDS011;7200;52.194;9.900;2023-04-24T07:59:07;3.77;;;2.93;;
14231;SDS011;7200;52.194;9.900;2023-04-24T08:01:34;3.13;;;2.83;;
14231;SDS011;7200;52.194;9.900;2023-04-24T08:03:59;6.07;;;5.57;;
14231;SDS011;7200;52.194;9.900;2023-04-24T08:06:25;5.90;;;4.97;;
14231;SDS011;7200;52.194;9.900;2023-04-24T08:08:55;2.90;;;2.30;;
14231;SDS011;7200;52.194;9.900;2023-04-24T08:11:20;4.87;;;4.47;;
14231;SDS011;7200;52.194;9.900;2023-04-24T08:13:46;2.43;;;2.23;;
14231;SDS011;7200;52.194;9.900;2023-04-24T08:16:11;3.67;;;3.37;;
14231;SDS011;7200;52.194;9.900;2023-04-24T08:18:36;5.87;;;5.10;;
14231;SDS011;7200;52.194;9.900;2023-04-24T08:21:02;3.70;;;3.40;;
14231;SDS011;7200;52.194;9.900;2023-04-24T08:23:27;3.30;;;3.00;;
14231;SDS011;7200;52.194;9.900;2023-04-24T08:25:54;1.53;;;1.40;;
14231;SDS011;7200;52.194;9.900;2023-04-24T08:28:19;4.83;;;4.43;;
14231;SDS011;7200;52.194;9.900;2023-04-24T08:30:45;4.00;;;3.63;;
14231;SDS011;7200;52.194;9.900;2023-04-24T08:33:12;4.83;;;4.40;;
14231;SDS011;7200;52.194;9.900;2023-04-24T08:35:38;4.07;;;3.77;;
14231;SDS011;7200;52.194;9.900;2023-04-24T08:38:03;3.23;;;2.60;;
14231;SDS011;7200;52.194;9.900;2023-04-24T08:40:29;4.00;;;2.93;;
14231;SDS011;7200;52.194;9.900;2023-04-24T08:42:58;4.53;;;2.60;;
14231;SDS011;7200;52.194;9.900;2023-04-24T08:45:24;2.37;;;2.17;;
14231;SDS011;7200;52.194;9.900;2023-04-24T08:47:50;3.73;;;2.93;;
14231;SDS011;7200;52.194;9.900;2023-04-24T08:50:18;2.53;;;1.37;;
14231;SDS011;7200;52.194;9.900;2023-04-24T08:52:43;2.83;;;2.07;;
14231;SDS011;7200;52.194;9.900;2023-04-24T08:55:09;2.13;;;1.93;;
14231;SDS011;7200;52.194;9.900;2023-04-24T08:57:35;2.47;;;2.30;;
14231;SDS011;7200;52.194;9.900;2023-04-24T09:00:03;2.73;;;1.77;;
14231;SDS011;7200;52.194;9.900;2023-04-24T09:02:29;1.33;;;1.23;;
14231;SDS011;7200;52.194;9.900;2023-04-24T09:04:55;5.23;;;2.47;;
14231;SDS011;7200;52.194;9.900;2023-04-24T09:07:22;2.20;;;1.73;;
14231;SDS011;7200;52.194;9.900;2023-04-24T09:09:50;0.90;;;0.77;;
14231;SDS011;7200;52.194;9.900;2023-04-24T09:12:16;0.83;;;0.83;;
14231;SDS011;7200;52.194;9.900;2023-04-24T09:14:42;1.27;;;1.17;;
14231;SDS011;7200;52.194;9.900;2023-04-24T09:17:10;2.30;;;1.43;;
14231;SDS011;7200;52.194;9.900;2023-04-24T09:19:35;0.87;;;0.87;;
14231;SDS011;7200;52.194;9.900;2023-04-24T09:22:04;1.87;;;1.77;;
14231;SDS011;7200;52.194;9.900;2023-04-24T09:24:31;1.90;;;1.70;;
14231;SDS011;7200;52.194;9.900;2023-04-24T09:26:57;0.90;;;0.90;;
14231;SDS011;7200;52.194;9.900;2023-04-24T09:29:29;2.17;;;1.53;;
14231;SDS011;7200;52.194;9.900;2023-04-24T09:31:54;2.30;;;2.10;;
14231;SDS011;7200;52.194;9.900;2023-04-24T09:34:23;1.00;;;0.93;;
14231;SDS011;7200;52.194;9.900;2023-04-24T09:36:50;1.30;;;1.20;;
14231;SDS011;7200;52.194;9.900;2023-04-24T09:39:16;1.47;;;1.37;;
14231;SDS011;7200;52.194;9.900;2023-04-24T09:44:24;0.87;;;0.73;;
14231;SDS011;7200;52.194;9.900;2023-04-24T09:46:52;0.60;;;0.60;;
14231;SDS011;7200;52.194;9.900;2023-04-24T09:49:23;1.43;;;1.33;;
14231;SDS011;7200;52.194;9.900;2023-04-24T09:51:50;1.33;;;0.73;;
14231;SDS011;7200;52.194;9.900;2023-04-24T09:54:19;0.37;;;0.37;;
14231;SDS011;7200;52.194;9.900;2023-04-24T09:56:47;1.40;;;1.00;;
14231;SDS011;7200;52.194;9.900;2023-04-24T09:59:14;2.20;;;1.60;;
14231;SDS011;7200;52.194;9.900;2023-04-24T10:01:42;1.83;;;1.60;;
14231;SDS011;7200;52.194;9.900;2023-04-24T10:04:16;2.33;;;1.03;;
14231;SDS011;7200;52.194;9.900;2023-04-24T10:06:49;0.50;;;0.50;;
14231;SDS011;7200;52.194;9.900;2023-04-24T10:09:16;1.10;;;0.97;;
14231;SDS011;7200;52.194;9.900;2023-04-24T10:11:43;0.90;;;0.90;;
14231;SDS011;7200;52.194;9.900;2023-04-24T10:14:14;0.40;;;0.40;;
14231;SDS011;7200;52.194;9.900;2023-04-24T10:16:42;1.70;;;1.07;;
14231;SDS011;7200;52.194;9.900;2023-04-24T10:19:08;1.13;;;1.13;;
14231;SDS011;7200;52.194;9.900;2023-04-24T10:21:35;0.40;;;0.40;;
14231;SDS011;7200;52.194;9.900;2023-04-24T10:24:07;0.10;;;0.10;;
14231;SDS011;7200;52.194;9.900;2023-04-24T10:26:32;1.90;;;1.20;;
14231;SDS011;7200;52.194;9.900;2023-04-24T10:28:58;0.20;;;0.20;;
14231;SDS011;7200;52.194;9.900;2023-04-24T10:31:25;0.43;;;0.43;;
14231;SDS011;7200;52.194;9.900;2023-04-24T10:33:52;0.67;;;0.60;;
14231;SDS011;7200;52.194;9.900;2023-04-24T10:36:18;0.67;;;0.67;;
14231;SDS011;7200;52.194;9.900;2023-04-24T10:38:47;0.83;;;0.83;;
14231;SDS011;7200;52.194;9.900;2023-04-24T10:41:14;0.20;;;0.20;;
14231;SDS011;7200;52.194;9.900;2023-04-24T10:43:44;1.33;;;1.23;;
14231;SDS011;7200;52.194;9.900;2023-04-24T10:46:10;0.30;;;0.27;;
14231;SDS011;7200;52.194;9.900;2023-04-24T10:48:44;0.77;;;0.77;;
14231;SDS011;7200;52.194;9.900;2023-04-24T10:51:18;0.37;;;0.30;;
14231;SDS011;7200;52.194;9.900;2023-04-24T10:53:46;0.93;;;0.87;;
14231;SDS011;7200;52.194;9.900;2023-04-24T10:56:11;2.03;;;1.40;;
14231;SDS011;7200;52.194;9.900;2023-04-24T10:58:42;0.60;;;0.60;;
14231;SDS011;7200;52.194;9.900;2023-04-24T11:01:23;0.30;;;0.30;;
14231;SDS011;7200;52.194;9.900;2023-04-24T11:03:56;0.63;;;0.53;;
14231;SDS011;7200;52.194;9.900;2023-04-24T11:06:32;0.40;;;0.40;;
14231;SDS011;7200;52.194;9.900;2023-04-24T11:09:05;0.93;;;0.90;;
14231;SDS011;7200;52.194;9.900;2023-04-24T11:11:37;0.10;;;0.10;;
14231;SDS011;7200;52.194;9.900;2023-04-24T11:14:06;0.23;;;0.23;;
14231;SDS011;7200;52.194;9.900;2023-04-24T11:21:48;0.20;;;0.20;;
14231;SDS011;7200;52.194;9.900;2023-04-24T11:29:39;0.60;;;0.60;;
14231;SDS011;7200;52.194;9.900;2023-04-24T11:32:24;0.63;;;0.63;;
14231;SDS011;7200;52.194;9.900;2023-04-24T11:34:54;1.37;;;1.27;;
14231;SDS011;7200;52.194;9.900;2023-04-24T11:37:22;0.80;;;0.80;;
14231;SDS011;7200;52.194;9.900;2023-04-24T11:39:50;0.80;;;0.80;;
14231;SDS011;7200;52.194;9.900;2023-04-24T11:42:17;0.80;;;0.80;;
14231;SDS011;7200;52.194;9.900;2023-04-24T11:44:43;1.93;;;1.00;;
14231;SDS011;7200;52.194;9.900;2023-04-24T11:47:08;0.90;;;0.90;;
14231;SDS011;7200;52.194;9.900;2023-04-24T11:49:34;1.53;;;0.53;;
14231;SDS011;7200;52.194;9.900;2023-04-24T11:52:01;0.47;;;0.47;;
14231;SDS011;7200;52.194;9.900;2023-04-24T11:54:27;2.80;;;0.40;;
14231;SDS011;7200;52.194;9.900;2023-04-24T11:56:53;0.80;;;0.53;;
14231;SDS011;7200;52.194;9.900;2023-04-24T11:59:18;0.90;;;0.90;;
14231;SDS011;7200;52.194;9.900;2023-04-24T12:01:46;0.20;;;0.20;;
14231;SDS011;7200;52.194;9.900;2023-04-24T12:04:12;1.20;;;1.10;;
14231;SDS011;7200;52.194;9.900;2023-04-24T12:06:38;0.10;;;0.10;;
14231;SDS011;7200;52.194;9.900;2023-04-24T12:09:03;0.97;;;0.90;;
14231;SDS011;7200;52.194;9.900;2023-04-24T12:11:29;0.60;;;0.60;;
14231;SDS011;7200;52.194;9.900;2023-04-24T12:13:55;0.60;;;0.60;;
14231;SDS011;7200;52.194;9.900;2023-04-24T12:16:20;0.80;;;0.50;;
14231;SDS011;7200;52.194;9.900;2023-04-24T12:18:46;0.50;;;0.50;;
14231;SDS011;7200;52.194;9.900;2023-04-24T12:23:46;0.70;;;0.70;;
14231;SDS011;7200;52.194;9.900;2023-04-24T12:26:15;0.20;;;0.20;;
14231;SDS011;7200;52.194;9.900;2023-04-24T12:28:48;0.70;;;0.70;;
14231;SDS011;7200;52.194;9.900;2023-04-24T12:31:15;0.40;;;0.40;;
14231;SDS011;7200;52.194;9.900;2023-04-24T12:33:45;0.80;;;0.80;;
14231;SDS011;7200;52.194;9.900;2023-04-24T12:36:10;0.80;;;0.80;;
14231;SDS011;7200;52.194;9.900;2023-04-24T12:38:37;0.60;;;0.60;;
14231;SDS011;7200;52.194;9.900;2023-04-24T12:41:06;0.90;;;0.90;;
14231;SDS011;7200;52.194;9.900;2023-04-24T12:43:33;0.67;;;0.67;;
14231;SDS011;7200;52.194;9.900;2023-04-24T12:45:59;0.30;;;0.30;;
14231;SDS011;7200;52.194;9.900;2023-04-24T12:48:25;0.30;;;0.30;;
14231;SDS011;7200;52.194;9.900;2023-04-24T12:50:51;0.70;;;0.70;;
14231;SDS011;7200;52.194;9.900;2023-04-24T12:53:16;0.70;;;0.70;;
14231;SDS011;7200;52.194;9.900;2023-04-24T12:55:41;0.80;;;0.80;;
14231;SDS011;7200;52.194;9.900;2023-04-24T12:58:07;0.80;;;0.80;;
14231;SDS011;7200;52.194;9.900;2023-04-24T13:00:32;0.83;;;0.80;;
14231;SDS011;7200;52.194;9.900;2023-04-24T13:02:58;0.90;;;0.73;;
14231;SDS011;7200;52.194;9.900;2023-04-24T13:05:23;1.27;;;1.17;;
14231;SDS011;7200;52.194;9.900;2023-04-24T13:07:49;0.70;;;0.70;;
14231;SDS011;7200;52.194;9.900;2023-04-24T13:10:15;1.00;;;1.00;;
14231;SDS011;7200;52.194;9.900;2023-04-24T13:12:40;2.07;;;1.50;;
14231;SDS011;7200;52.194;9.900;2023-04-24T13:15:06;0.90;;;0.90;;
14231;SDS011;7200;52.194;9.900;2023-04-24T13:17:31;0.97;;;0.97;;
14231;SDS011;7200;52.194;9.900;2023-04-24T13:19:58;1.07;;;1.07;;
14231;SDS011;7200;52.194;9.900;2023-04-24T13:22:23;0.80;;;0.80;;
14231;SDS011;7200;52.194;9.900;2023-04-24T13:24:48;1.23;;;1.10;;
14231;SDS011;7200;52.194;9.900;2023-04-24T13:27:14;0.73;;;0.73;;
14231;SDS011;7200;52.194;9.900;2023-04-24T13:29:40;0.57;;;0.57;;
14231;SDS011;7200;52.194;9.900;2023-04-24T13:32:06;0.60;;;0.60;;
14231;SDS011;7200;52.194;9.900;2023-04-24T13:34:31;0.60;;;0.60;;
14231;SDS011;7200;52.194;9.900;2023-04-24T13:36:57;0.70;;;0.70;;
14231;SDS011;7200;52.194;9.900;2023-04-24T13:39:23;0.50;;;0.50;;
14231;SDS011;7200;52.194;9.900;2023-04-24T13:41:49;0.60;;;0.60;;
14231;SDS011;7200;52.194;9.900;2023-04-24T13:44:15;0.60;;;0.60;;
14231;SDS011;7200;52.194;9.900;2023-04-24T13:46:42;0.50;;;0.50;;
14231;SDS011;7200;52.194;9.900;2023-04-24T13:49:11;0.67;;;0.67;;
14231;SDS011;7200;52.194;9.900;2023-04-24T13:51:38;0.60;;;0.60;;
14231;SDS011;7200;52.194;9.900;2023-04-24T13:54:04;0.47;;;0.47;;
14231;SDS011;7200;52.194;9.900;2023-04-24T13:56:29;0.60;;;0.60;;
14231;SDS011;7200;52.194;9.900;2023-04-24T13:58:54;0.40;;;0.40;;
14231;SDS011;7200;52.194;9.900;2023-04-24T14:01:20;0.43;;;0.43;;
14231;SDS011;7200;52.194;9.900;2023-04-24T14:03:49;0.40;;;0.40;;
14231;SDS011;7200;52.194;9.900;2023-04-24T14:06:16;0.33;;;0.33;;
14231;SDS011;7200;52.194;9.900;2023-04-24T14:08:41;0.40;;;0.40;;
14231;SDS011;7200;52.194;9.900;2023-04-24T14:11:07;0.63;;;0.43;;
14231;SDS011;7200;52.194;9.900;2023-04-24T14:13:32;0.40;;;0.40;;
14231;SDS011;7200;52.194;9.900;2023-04-24T14:15:58;0.50;;;0.50;;
14231;SDS011;7200;52.194;9.900;2023-04-24T14:18:23;0.50;;;0.50;;
14231;SDS011;7200;52.194;9.900;2023-04-24T14:20:48;0.30;;;0.30;;
14231;SDS011;7200;52.194;9.900;2023-04-24T14:23:14;1.13;;;0.50;;
14231;SDS011;7200;52.194;9.900;2023-04-24T14:25:39;2.10;;;0.77;;
14231;SDS011;7200;52.194;9.900;2023-04-24T14:28:05;0.33;;;0.33;;
14231;SDS011;7200;52.194;9.900;2023-04-24T14:30:31;0.47;;;0.47;;
14231;SDS011;7200;52.194;9.900;2023-04-24T14:32:56;0.60;;;0.60;;
14231;SDS011;7200;52.194;9.900;2023-04-24T14:35:21;0.67;;;0.67;;
14231;SDS011;7200;52.194;9.900;2023-04-24T14:37:47;0.97;;;0.40;;
14231;SDS011;7200;52.194;9.900;2023-04-24T14:40:13;1.07;;;0.97;;
14231;SDS011;7200;52.194;9.900;2023-04-24T14:42:38;0.57;;;0.57;;
14231;SDS011;7200;52.194;9.900;2023-04-24T14:45:04;1.57;;;1.30;;
14231;SDS011;7200;52.194;9.900;2023-04-24T14:47:29;1.00;;;1.00;;
14231;SDS011;7200;52.194;9.900;2023-04-24T14:49:54;1.10;;;1.10;;
14231;SDS011;7200;52.194;9.900;2023-04-24T14:52:20;0.77;;;0.77;;
14231;SDS011;7200;52.194;9.900;2023-04-24T14:54:46;1.23;;;1.13;;
14231;SDS011;7200;52.194;9.900;2023-04-24T14:57:11;1.10;;;1.10;;
14231;SDS011;7200;52.194;9.900;2023-04-24T14:59:37;1.10;;;0.90;;
14231;SDS011;7200;52.194;9.900;2023-04-24T15:02:02;0.90;;;0.90;;
14231;SDS011;7200;52.194;9.900;2023-04-24T15:04:28;0.77;;;0.53;;
14231;SDS011;7200;52.194;9.900;2023-04-24T15:06:54;0.50;;;0.50;;
14231;SDS011;7200;52.194;9.900;2023-04-24T15:09:20;0.93;;;0.83;;